createdAt,value
2022-08-22T00:00:50.232Z,18.29
2022-08-22T00:03:25.856Z,18.29
2022-08-22T00:06:00.362Z,18.32
2022-08-22T00:08:43.001Z,18.34
2022-08-22T00:11:15.300Z,18.25
2022-08-22T00:13:47.725Z,18.15
2022-08-22T00:16:35.901Z,18.09
2022-08-22T00:19:16.713Z,18.04
2022-08-22T00:22:05.291Z,18.00
2022-08-22T00:24:43.976Z,17.93
2022-08-22T00:27:13.178Z,17.93
2022-08-22T00:29:43.415Z,17.98
2022-08-22T00:32:20.122Z,17.95
2022-08-22T00:34:51.039Z,17.99
2022-08-22T00:37:17.479Z,17.97
2022-08-22T00:39:47.470Z,18.10
2022-08-22T00:42:29.286Z,18.16
2022-08-22T00:45:17.031Z,18.17
2022-08-22T00:47:45.684Z,18.14
2022-08-22T00:50:30.523Z,18.09
2022-08-22T00:53:04.181Z,18.01
2022-08-22T00:55:45.382Z,18.03
2022-08-22T00:58:30.265Z,17.86
2022-08-22T01:01:02.258Z,17.78
2022-08-22T01:03:50.405Z,17.78
2022-08-22T01:06:19.648Z,17.80
2022-08-22T01:09:01.730Z,17.87
2022-08-22T01:11:35.456Z,17.95
2022-08-22T01:14:20.393Z,17.90
2022-08-22T01:17:19.605Z,17.57
2022-08-22T01:20:01.640Z,17.33
2022-08-22T01:22:28.004Z,17.35
2022-08-22T01:25:16.436Z,17.38
2022-08-22T01:28:03.013Z,17.21
2022-08-22T01:30:37.788Z,17.03
2022-08-22T01:33:10.118Z,17.20
2022-08-22T01:35:36.519Z,17.33
2022-08-22T01:38:29.177Z,17.37
2022-08-22T01:41:06.233Z,17.42
2022-08-22T01:43:59.088Z,17.40
2022-08-22T01:46:28.615Z,17.36
2022-08-22T01:49:11.724Z,17.45
2022-08-22T01:51:43.295Z,17.50
2022-08-22T01:54:13.073Z,17.47
2022-08-22T01:56:45.756Z,17.39
2022-08-22T01:59:15.087Z,17.38
2022-08-22T02:01:49.865Z,17.27
2022-08-22T02:04:20.624Z,17.22
2022-08-22T02:06:59.745Z,17.19
2022-08-22T02:09:34.725Z,17.22
2022-08-22T02:12:22.057Z,17.33
2022-08-22T02:14:54.703Z,17.15
2022-08-22T02:17:27.937Z,16.87
2022-08-22T02:19:57.766Z,16.90
2022-08-22T02:22:50.507Z,17.08
2022-08-22T02:25:23.723Z,17.18
2022-08-22T02:28:08.458Z,17.24
2022-08-22T02:30:47.070Z,17.17
2022-08-22T02:33:21.698Z,17.16
2022-08-22T02:35:59.797Z,17.12
2022-08-22T02:38:35.355Z,16.95
2022-08-22T02:41:01.986Z,16.85
2022-08-22T02:43:36.691Z,16.82
2022-08-22T02:46:03.929Z,16.87
2022-08-22T02:48:54.852Z,16.87
2022-08-22T02:51:29.885Z,16.85
2022-08-22T02:54:03.072Z,16.87
2022-08-22T02:56:40.814Z,16.82
2022-08-22T02:59:25.970Z,16.89
2022-08-22T03:01:52.825Z,16.92
2022-08-22T03:04:25.581Z,16.95
2022-08-22T03:07:06.954Z,16.92
2022-08-22T03:09:51.391Z,17.00
2022-08-22T03:12:29.921Z,16.93
2022-08-22T03:15:07.815Z,16.97
2022-08-22T03:18:00.586Z,16.93
2022-08-22T03:20:42.684Z,16.79
2022-08-22T03:23:34.579Z,16.77
2022-08-22T03:26:07.657Z,16.72
2022-08-22T03:28:37.375Z,16.69
2022-08-22T03:31:20.373Z,16.67
2022-08-22T03:34:06.730Z,16.75
2022-08-22T03:36:34.829Z,16.82
2022-08-22T03:39:27.750Z,16.86
2022-08-22T03:42:17.869Z,16.87
2022-08-22T03:44:56.489Z,16.85
2022-08-22T03:47:26.065Z,16.83
2022-08-22T03:49:59.359Z,16.75
2022-08-22T03:53:01.284Z,16.72
2022-08-22T03:55:30.726Z,16.71
2022-08-22T03:58:27.539Z,16.59
2022-08-22T04:01:27.242Z,16.65
2022-08-22T04:03:59.231Z,16.72
2022-08-22T04:06:44.425Z,16.71
2022-08-22T04:09:20.633Z,16.57
2022-08-22T04:11:56.228Z,16.59
2022-08-22T04:14:25.681Z,16.64
2022-08-22T04:16:58.289Z,16.70
2022-08-22T04:19:24.663Z,16.70
2022-08-22T04:22:09.966Z,16.61
2022-08-22T04:24:54.656Z,16.57
2022-08-22T04:27:34.187Z,16.57
2022-08-22T04:30:22.973Z,16.63
2022-08-22T04:33:09.681Z,16.60
2022-08-22T04:35:41.982Z,16.67
2022-08-22T04:38:20.283Z,16.71
2022-08-22T04:40:50.519Z,16.68
2022-08-22T04:43:23.758Z,16.63
2022-08-22T04:46:08.259Z,16.61
2022-08-22T04:48:37.710Z,16.63
2022-08-22T04:51:16.633Z,16.60
2022-08-22T04:53:52.960Z,16.70
2022-08-22T04:56:35.364Z,16.65
2022-08-22T04:59:09.259Z,16.73
2022-08-22T05:01:55.617Z,16.77
2022-08-22T05:04:22.068Z,16.73
2022-08-22T05:06:52.133Z,16.72
2022-08-22T05:09:21.706Z,16.62
2022-08-22T05:11:51.435Z,16.69
2022-08-22T05:14:21.428Z,16.79
2022-08-22T05:16:50.918Z,16.96
2022-08-22T05:19:27.082Z,17.19
2022-08-22T05:22:05.591Z,17.39
2022-08-22T05:24:33.779Z,17.44
2022-08-22T05:27:05.827Z,17.53
2022-08-22T05:29:32.625Z,17.66
2022-08-22T05:32:07.451Z,17.78
2022-08-22T05:34:37.274Z,17.86
2022-08-22T05:37:03.651Z,17.95
2022-08-22T05:39:34.947Z,18.04
2022-08-22T05:42:02.529Z,18.16
2022-08-22T05:44:37.575Z,18.33
2022-08-22T05:47:12.854Z,18.42
2022-08-22T05:49:48.344Z,18.58
2022-08-22T05:52:20.721Z,18.59
2022-08-22T05:55:00.628Z,18.57
2022-08-22T05:57:33.624Z,18.53
2022-08-22T06:00:14.989Z,18.58
2022-08-22T06:02:51.540Z,18.55
2022-08-22T06:05:29.304Z,18.55
2022-08-22T06:08:01.002Z,18.54
2022-08-22T06:10:31.844Z,18.50
2022-08-22T06:13:03.165Z,18.48
2022-08-22T06:15:34.693Z,18.45
2022-08-22T06:18:15.050Z,18.42
2022-08-22T06:20:47.737Z,18.36
2022-08-22T06:23:15.859Z,18.35
2022-08-22T06:25:44.920Z,18.23
2022-08-22T06:28:13.933Z,18.27
2022-08-22T06:30:40.561Z,18.32
2022-08-22T06:33:10.768Z,18.48
2022-08-22T06:35:59.349Z,18.46
2022-08-22T06:38:33.173Z,18.39
2022-08-22T06:41:06.216Z,18.36
2022-08-22T06:43:39.032Z,18.46
2022-08-22T06:46:06.377Z,18.47
2022-08-22T06:48:37.363Z,18.58
2022-08-22T06:51:06.509Z,18.56
2022-08-22T06:53:35.202Z,18.50
2022-08-22T06:56:03.486Z,18.56
2022-08-22T06:58:34.378Z,18.62
2022-08-22T07:01:12.450Z,18.71
2022-08-22T07:03:45.022Z,18.81
2022-08-22T07:06:16.135Z,18.81
2022-08-22T07:08:43.991Z,18.78
2022-08-22T07:11:15.099Z,18.84
2022-08-22T07:13:44.202Z,19.03
2022-08-22T07:16:10.927Z,19.05
2022-08-22T07:18:46.289Z,19.09
2022-08-22T07:21:26.095Z,19.04
2022-08-22T07:23:56.667Z,19.06
2022-08-22T07:26:33.653Z,19.17
2022-08-22T07:29:00.090Z,19.29
2022-08-22T07:31:49.802Z,19.50
2022-08-22T07:34:25.656Z,19.56
2022-08-22T07:37:10.824Z,19.71
2022-08-22T07:39:46.512Z,19.72
2022-08-22T07:42:18.430Z,19.76
2022-08-22T07:44:47.639Z,19.89
2022-08-22T07:47:18.080Z,19.96
2022-08-22T07:50:02.163Z,20.13
2022-08-22T07:52:35.422Z,20.36
2022-08-22T07:55:09.123Z,20.61
2022-08-22T07:57:38.800Z,20.86
2022-08-22T08:00:11.364Z,21.13
2022-08-22T08:02:40.285Z,21.29
2022-08-22T08:05:06.936Z,21.45
2022-08-22T08:07:33.475Z,21.74
2022-08-22T08:10:13.111Z,22.03
2022-08-22T08:13:02.222Z,22.26
2022-08-22T08:15:30.377Z,22.34
2022-08-22T08:17:59.913Z,22.63
2022-08-22T08:20:27.498Z,22.60
2022-08-22T08:22:58.325Z,22.78
2022-08-22T08:25:27.697Z,23.07
2022-08-22T08:28:13.484Z,23.35
2022-08-22T08:30:46.999Z,23.59
2022-08-22T08:33:26.067Z,23.55
2022-08-22T08:36:02.894Z,23.84
2022-08-22T08:38:47.937Z,23.96
2022-08-22T08:41:33.653Z,24.29
2022-08-22T08:44:03.262Z,24.17
2022-08-22T08:46:29.668Z,24.09
2022-08-22T08:49:12.862Z,24.13
2022-08-22T08:51:42.291Z,24.33
2022-08-22T08:54:09.331Z,24.34
2022-08-22T08:56:47.267Z,24.51
2022-08-22T08:59:32.123Z,24.70
2022-08-22T09:02:25.030Z,25.03
2022-08-22T09:05:08.904Z,24.77
2022-08-22T09:07:36.125Z,25.12
2022-08-22T09:10:21.225Z,25.00
2022-08-22T09:13:11.434Z,24.92
2022-08-22T09:15:42.172Z,25.07
2022-08-22T09:18:18.254Z,25.18
2022-08-22T09:20:59.317Z,25.44
2022-08-22T09:23:44.282Z,25.32
2022-08-22T09:26:17.557Z,25.41
2022-08-22T09:28:57.978Z,25.30
2022-08-22T09:31:51.847Z,25.60
2022-08-22T09:34:30.284Z,25.90
2022-08-22T09:36:56.649Z,25.49
2022-08-22T09:39:29.308Z,25.33
2022-08-22T09:42:04.095Z,25.42
2022-08-22T09:44:39.607Z,25.51
2022-08-22T09:47:26.588Z,25.70
2022-08-22T09:50:11.139Z,25.73
2022-08-22T09:52:56.072Z,25.75
2022-08-22T09:55:34.894Z,25.87
2022-08-22T09:58:05.712Z,26.20
2022-08-22T10:00:47.182Z,26.04
2022-08-22T10:03:31.140Z,25.86
2022-08-22T10:06:09.833Z,25.77
2022-08-22T10:08:46.924Z,25.78
2022-08-22T10:11:24.803Z,25.68
2022-08-22T10:14:10.077Z,25.89
2022-08-22T10:16:47.218Z,26.23
2022-08-22T10:19:29.254Z,26.18
2022-08-22T10:21:55.720Z,26.26
2022-08-22T10:24:44.044Z,26.49
2022-08-22T10:27:22.758Z,26.55
2022-08-22T10:30:18.506Z,26.61
2022-08-22T10:33:03.569Z,26.99
2022-08-22T10:35:43.949Z,26.62
2022-08-22T10:38:26.651Z,26.65
2022-08-22T10:41:01.406Z,27.00
2022-08-22T10:43:33.274Z,26.84
2022-08-22T10:46:12.638Z,26.65
2022-08-22T10:48:57.355Z,26.94
2022-08-22T10:51:41.353Z,27.32
2022-08-22T10:54:20.280Z,27.16
2022-08-22T10:56:53.330Z,27.00
2022-08-22T10:59:23.377Z,27.16
2022-08-22T11:02:16.455Z,27.19
2022-08-22T11:05:01.839Z,27.41
2022-08-22T11:07:31.965Z,27.36
2022-08-22T11:10:09.223Z,27.20
2022-08-22T11:12:41.794Z,27.17
2022-08-22T11:15:35.206Z,27.26
2022-08-22T11:18:37.205Z,27.22
2022-08-22T11:21:07.875Z,27.34
2022-08-22T11:23:44.682Z,27.34
2022-08-22T11:26:38.254Z,27.24
2022-08-22T11:29:13.418Z,27.39
2022-08-22T11:32:05.629Z,27.31
2022-08-22T11:34:53.803Z,27.16
2022-08-22T11:37:27.040Z,27.14
2022-08-22T11:40:32.737Z,27.05
2022-08-22T11:43:18.016Z,26.93
2022-08-22T11:45:52.287Z,26.97
2022-08-22T11:48:25.474Z,27.21
2022-08-22T11:50:57.772Z,27.39
2022-08-22T11:53:24.159Z,27.61
2022-08-22T11:55:59.864Z,27.56
2022-08-22T11:58:47.565Z,26.46
2022-08-22T12:01:24.941Z,25.79
2022-08-22T12:04:03.507Z,25.44
2022-08-22T12:06:46.970Z,25.19
2022-08-22T12:09:13.552Z,25.24
2022-08-22T12:11:45.756Z,26.02
2022-08-22T12:14:19.413Z,26.58
2022-08-22T12:17:01.184Z,26.85
2022-08-22T12:19:27.921Z,26.63
2022-08-22T12:22:17.882Z,26.08
2022-08-22T12:24:47.311Z,25.60
2022-08-22T12:27:28.668Z,25.84
2022-08-22T12:29:59.137Z,26.30
2022-08-22T12:32:28.524Z,26.63
2022-08-22T12:35:13.686Z,26.26
2022-08-22T12:37:59.562Z,26.40
2022-08-22T12:40:38.200Z,26.08
2022-08-22T12:43:18.709Z,26.38
2022-08-22T12:45:56.448Z,26.88
2022-08-22T12:48:38.598Z,27.12
2022-08-22T12:51:20.244Z,27.42
2022-08-22T12:54:05.512Z,27.56
2022-08-22T12:56:38.066Z,27.57
2022-08-22T12:59:07.555Z,27.17
2022-08-22T13:01:42.635Z,27.09
2022-08-22T13:04:19.305Z,27.20
2022-08-22T13:07:00.075Z,27.30
2022-08-22T13:09:31.293Z,27.25
2022-08-22T13:12:22.768Z,27.13
2022-08-22T13:14:52.803Z,27.28
2022-08-22T13:17:24.357Z,26.89
2022-08-22T13:20:09.048Z,26.58
2022-08-22T13:22:38.880Z,26.29
2022-08-22T13:25:16.264Z,26.02
2022-08-22T13:27:59.279Z,25.75
2022-08-22T13:30:37.871Z,25.75
2022-08-22T13:33:09.525Z,25.70
2022-08-22T13:35:55.124Z,25.69
2022-08-22T13:38:40.361Z,25.95
2022-08-22T13:41:18.230Z,25.83
2022-08-22T13:43:57.245Z,25.87
2022-08-22T13:46:28.137Z,25.81
2022-08-22T13:49:00.984Z,25.77
2022-08-22T13:51:41.245Z,25.62
2022-08-22T13:54:10.831Z,25.45
2022-08-22T13:56:43.550Z,25.38
2022-08-22T13:59:47.092Z,25.37
2022-08-22T14:02:25.043Z,25.46
2022-08-22T14:05:04.126Z,25.80
2022-08-22T14:07:36.308Z,26.22
2022-08-22T14:10:06.608Z,26.21
2022-08-22T14:12:50.997Z,26.13
2022-08-22T14:15:44.833Z,26.04
2022-08-22T14:18:18.503Z,25.94
2022-08-22T14:20:49.160Z,25.83
2022-08-22T14:23:29.267Z,25.71
2022-08-22T14:25:56.200Z,25.63
2022-08-22T14:28:27.424Z,25.56
2022-08-22T14:31:04.089Z,25.50
2022-08-22T14:33:35.392Z,25.42
2022-08-22T14:36:13.346Z,25.43
2022-08-22T14:38:46.304Z,25.46
2022-08-22T14:41:26.198Z,25.44
2022-08-22T14:43:56.937Z,25.41
2022-08-22T14:46:32.301Z,25.42
2022-08-22T14:49:13.792Z,25.60
2022-08-22T14:51:47.970Z,25.69
2022-08-22T14:54:21.488Z,25.71
2022-08-22T14:56:49.027Z,25.75
2022-08-22T14:59:30.475Z,25.84
2022-08-22T15:02:03.026Z,25.92
2022-08-22T15:04:34.143Z,25.92
2022-08-22T15:07:02.335Z,25.91
2022-08-22T15:09:33.046Z,25.96
2022-08-22T15:12:01.730Z,25.99
2022-08-22T15:14:52.484Z,26.08
2022-08-22T15:17:36.404Z,26.07
2022-08-22T15:20:16.131Z,26.03
2022-08-22T15:22:46.001Z,25.93
2022-08-22T15:25:12.406Z,25.91
2022-08-22T15:27:56.891Z,25.93
2022-08-22T15:30:39.073Z,25.91
2022-08-22T15:33:32.282Z,25.91
2022-08-22T15:36:27.947Z,25.92
2022-08-22T15:38:56.327Z,25.86
2022-08-22T15:41:31.232Z,25.80
2022-08-22T15:44:09.448Z,25.82
2022-08-22T15:46:44.825Z,25.80
2022-08-22T15:49:33.409Z,25.76
2022-08-22T15:52:01.411Z,25.82
2022-08-22T15:54:30.909Z,25.85
2022-08-22T15:57:09.987Z,25.87
2022-08-22T15:59:48.031Z,25.84
2022-08-22T16:02:27.030Z,25.71
2022-08-22T16:05:11.636Z,25.65
2022-08-22T16:07:40.744Z,25.59
2022-08-22T16:10:12.352Z,25.58
2022-08-22T16:12:45.955Z,25.56
2022-08-22T16:15:31.278Z,25.58
2022-08-22T16:17:57.839Z,25.56
2022-08-22T16:20:24.433Z,25.55
2022-08-22T16:22:56.760Z,25.58
2022-08-22T16:25:41.907Z,25.58
2022-08-22T16:28:19.268Z,25.50
2022-08-22T16:30:52.359Z,25.49
2022-08-22T16:33:33.724Z,25.47
2022-08-22T16:36:37.351Z,25.42
2022-08-22T16:39:08.918Z,25.32
2022-08-22T16:41:41.416Z,25.26
2022-08-22T16:44:17.073Z,25.18
2022-08-22T16:46:45.038Z,25.09
2022-08-22T16:49:23.169Z,25.09
2022-08-22T16:52:09.809Z,25.07
2022-08-22T16:54:44.554Z,25.03
2022-08-22T16:57:10.972Z,25.00
2022-08-22T16:59:49.988Z,24.96
2022-08-22T17:02:16.423Z,24.94
2022-08-22T17:05:04.351Z,24.91
2022-08-22T17:07:49.353Z,24.86
2022-08-22T17:10:24.878Z,24.84
2022-08-22T17:12:51.245Z,24.82
2022-08-22T17:15:28.046Z,24.76
2022-08-22T17:17:57.154Z,24.75
2022-08-22T17:20:29.811Z,24.75
2022-08-22T17:23:03.114Z,24.76
2022-08-22T17:25:44.766Z,24.71
2022-08-22T17:28:34.623Z,24.61
2022-08-22T17:31:21.350Z,24.50
2022-08-22T17:33:56.650Z,24.50
2022-08-22T17:36:41.275Z,24.48
2022-08-22T17:39:26.135Z,24.47
2022-08-22T17:42:21.337Z,24.44
2022-08-22T17:44:50.634Z,24.37
2022-08-22T17:47:19.564Z,24.36
2022-08-22T17:49:51.845Z,24.36
2022-08-22T17:52:30.391Z,24.36
2022-08-22T17:55:15.666Z,24.33
2022-08-22T17:57:54.007Z,24.26
2022-08-22T18:00:26.340Z,24.22
2022-08-22T18:03:10.537Z,24.12
2022-08-22T18:05:49.114Z,24.05
2022-08-22T18:11:12.279Z,23.98
2022-08-22T18:14:04.987Z,23.93
2022-08-22T18:16:36.969Z,23.87
2022-08-22T18:19:06.530Z,23.76
2022-08-22T18:21:37.060Z,23.66
2022-08-22T18:24:09.293Z,23.58
2022-08-22T18:26:41.729Z,23.53
2022-08-22T18:29:23.865Z,23.47
2022-08-22T18:32:07.485Z,23.48
2022-08-22T18:34:56.314Z,23.51
2022-08-22T18:37:43.056Z,23.52
2022-08-22T18:40:28.590Z,23.47
2022-08-22T18:43:15.276Z,23.46
2022-08-22T18:45:47.789Z,23.45
2022-08-22T18:48:36.865Z,23.39
2022-08-22T18:51:15.137Z,23.36
2022-08-22T18:53:46.338Z,23.31
2022-08-22T18:56:19.371Z,23.29
2022-08-22T18:59:15.387Z,23.24
2022-08-22T19:01:44.363Z,23.22
2022-08-22T19:04:30.089Z,23.17
2022-08-22T19:07:03.442Z,23.15
2022-08-22T19:09:52.571Z,23.11
2022-08-22T19:12:23.056Z,23.05
2022-08-22T19:14:53.845Z,23.00
2022-08-22T19:17:27.613Z,23.00
2022-08-22T19:20:38.680Z,22.96
2022-08-22T19:23:33.897Z,22.89
2022-08-22T19:26:18.835Z,22.83
2022-08-22T19:28:48.061Z,22.80
2022-08-22T19:31:22.681Z,22.77
2022-08-22T19:34:09.039Z,22.57
2022-08-22T19:36:36.140Z,22.38
2022-08-22T19:39:09.221Z,22.26
2022-08-22T19:41:48.089Z,22.13
2022-08-22T19:44:23.261Z,21.71
2022-08-22T19:47:11.423Z,21.63
2022-08-22T19:49:43.713Z,21.73
2022-08-22T19:52:26.045Z,21.79
2022-08-22T19:54:55.475Z,21.47
2022-08-22T19:57:42.143Z,21.30
2022-08-22T20:00:13.845Z,21.39
2022-08-22T20:02:56.906Z,21.39
2022-08-22T20:05:31.899Z,21.33
2022-08-22T20:08:13.371Z,21.35
2022-08-22T20:11:03.170Z,21.32
2022-08-22T20:13:34.355Z,21.32
2022-08-22T20:16:21.539Z,21.07
2022-08-22T20:18:51.863Z,20.88
2022-08-22T20:21:40.875Z,20.62
2022-08-22T20:24:10.049Z,20.59
2022-08-22T20:26:51.935Z,20.73
2022-08-22T20:29:36.352Z,20.86
2022-08-22T20:32:04.696Z,20.82
2022-08-22T20:34:33.626Z,20.90
2022-08-22T20:37:27.134Z,20.98
2022-08-22T20:39:59.453Z,21.04
2022-08-22T20:42:26.503Z,21.08
2022-08-22T20:44:53.813Z,21.09
2022-08-22T20:47:24.876Z,21.12
2022-08-22T20:49:53.408Z,21.12
2022-08-22T20:52:19.890Z,21.21
2022-08-22T20:54:57.727Z,21.18
2022-08-22T20:57:24.174Z,21.06
2022-08-22T20:59:59.160Z,20.92
2022-08-22T21:02:37.685Z,20.60
2022-08-22T21:05:04.672Z,20.26
2022-08-22T21:07:32.954Z,20.22
2022-08-22T21:10:22.568Z,20.33
2022-08-22T21:13:04.508Z,20.37
2022-08-22T21:15:35.331Z,20.46
2022-08-22T21:18:02.140Z,20.29
2022-08-22T21:20:31.261Z,20.18
2022-08-22T21:23:01.060Z,19.93
2022-08-22T21:25:30.109Z,19.96
2022-08-22T21:28:00.825Z,20.04
2022-08-22T21:30:29.388Z,20.20
2022-08-22T21:32:56.609Z,19.97
2022-08-22T21:35:26.089Z,19.73
2022-08-22T21:37:52.654Z,19.63
2022-08-22T21:40:28.837Z,19.57
2022-08-22T21:43:00.466Z,19.56
2022-08-22T21:45:35.538Z,19.82
2022-08-22T21:48:21.865Z,19.91
2022-08-22T21:50:48.320Z,19.85
2022-08-22T21:53:29.835Z,19.88
2022-08-22T21:56:16.090Z,19.95
2022-08-22T21:58:42.855Z,19.88
2022-08-22T22:01:28.256Z,19.86
2022-08-22T22:03:55.360Z,19.99
2022-08-22T22:06:25.465Z,19.95
2022-08-22T22:08:51.901Z,19.85
2022-08-22T22:11:18.427Z,19.93
2022-08-22T22:13:45.066Z,20.04
2022-08-22T22:16:14.809Z,20.09
2022-08-22T22:18:41.280Z,20.18
2022-08-22T22:21:08.427Z,20.22
2022-08-22T22:23:34.893Z,20.28
2022-08-22T22:26:05.353Z,20.31
2022-08-22T22:28:34.700Z,20.30
2022-08-22T22:31:01.391Z,20.28
2022-08-22T22:33:32.281Z,20.31
2022-08-22T22:36:04.945Z,20.13
2022-08-22T22:38:31.407Z,20.00
2022-08-22T22:40:57.884Z,20.10
2022-08-22T22:43:25.861Z,19.91
2022-08-22T22:45:55.418Z,19.73
2022-08-22T22:48:24.532Z,19.55
2022-08-22T22:50:51.602Z,19.44
2022-08-22T22:53:19.818Z,19.27
2022-08-22T22:55:59.807Z,19.16
2022-08-22T22:58:27.060Z,19.11
2022-08-22T23:00:53.566Z,19.04
2022-08-22T23:03:20.267Z,18.67
2022-08-22T23:05:46.714Z,18.56
2022-08-22T23:08:13.103Z,18.59
2022-08-22T23:10:39.515Z,18.74
2022-08-22T23:13:06.513Z,18.71
2022-08-22T23:15:32.915Z,18.81
2022-08-22T23:18:02.705Z,18.67
2022-08-22T23:20:29.097Z,18.87
2022-08-22T23:22:55.465Z,19.07
2022-08-22T23:25:21.971Z,18.89
2022-08-22T23:27:48.804Z,18.63
2022-08-22T23:30:18.974Z,18.76
2022-08-22T23:32:48.185Z,18.74
2022-08-22T23:35:14.666Z,18.49
2022-08-22T23:37:41.057Z,18.42
2022-08-22T23:40:09.313Z,18.40
2022-08-22T23:42:35.756Z,18.26
2022-08-22T23:45:02.168Z,18.27
2022-08-22T23:47:32.038Z,18.34
2022-08-22T23:49:58.443Z,18.29
2022-08-22T23:52:29.343Z,18.31
2022-08-22T23:54:55.961Z,18.11
2022-08-22T23:57:26.391Z,17.99
2022-08-22T23:59:58.404Z,17.90
